N.E. Airport METARS
                                                                                                                                                                                                                                                                                                              KCGF   170515Z AUTO 25006KT 10SM CLR 12/08 A2984 RMK AO2 T01170078                                KCLE   170451Z 21005KT 10SM CLR 15/04 A2981 RMK AO2 SLP109 T01500044 402330133                                KBKL   170453Z 26010KT 10SM CLR 16/11 A2981 RMK AO2 SLP092 T01610106 402170139                                KLNN   170515Z AUTO 28007KT 10SM CLR 15/06 A2981 RMK AO1 T01460064                                KYNG   170451Z 21003KT 10SM FEW090 11/08 A2983 RMK AO2 SLP102 T01060083 402170094 $                                KPOV   170515Z AUTO 00000KT 10SM CLR 08/06 A2983 RMK AO2 T00830055 PWINO                                                                                                                                                                                                                                                                                                                                          
10 Latest QSO's Are:
  N0NIY(FT8, UNITED STATES, CO)    K8TE(FT8, UNITED STATES, NM)    F4JEH(FT8, FRANCE)    NU5D(FT8, UNITED STATES)    KB1PNI(FT8, UNITED STATES, OK)    K7CTM(FT8, UNITED STATES, MT)    KO4DCR(SSTV, UNITED STATES, FL)    V31DL(FT8, BELIZE)    E74E(FT8, BOSNIA-HERZEGOVINA)    TI3RCS(FT8, COSTA RICA)    

Untitled Document   HOME PAGE

 

MAIN TOPICS

 

  Aviation   Operating Modes   SDR   Slow Scan TV   My Logbook   Awards   My Station   Weather   My Projects   Miscellaneous

 

ABOUT

 

  N8MDP   Contact Me

 

CQ CQ CQ

 

If you have a question or a comment. please do not hesitate to ask here.

 

 

The Love of Flying

 

One of my greatest passions was to learn how to fly. It must have been the inspiration of going to many airshows, having my parents take me to the Cleveland Hopkins International Airport on Sunday's to watch airplanes. My mon once told me that when I was young, one of the first multiple syllable words I learned to say was "United". Gee I wonder why? Back in the early 60's, United was one of the big carriers at the airport. I remember seeing the DC-6's, Viscounts, Caravelles, and even United's Boeing 720 jets. What a thrill. If memory serves, I believe I recall seeing United's unveiling of the 727 in Cleveland where they had an open house to view the plane. Ah the memories.

 

Air shows were big in our family, especially the Cleveland National Air Show and Air Races. To watch the races was like watching car races. You could hear the people rooting for the pilots. To me, walking around the planes, and seeing so many flyovers was the thrill. Even today, I have vivid memories of seeing flyovers by planes including the B-58 Hustler, Concorde, Vulcan Bomber, F-115 Stealth Fighter, B-52 Bombers, and so many more.

 

Meeting pilots was just as fun. I remember having the opportunity to meet Arnold Palmer, the legendary Bob Hoover, Dean Ortner (local P51 pilot), Corky Fornof, and all the military pilots who welcomed young people to talk to them.

 

My love of flying never ended even though I was unable to take lessons. My job and family vacations has given me the opportunity to fly all over the world and on many different planes. The list is long: 717, 727, 737, 747, 757, 767, 777, 787, DC-3, DC-8, DC-9, Lockheed Electra, Twin Otter, Saab 340, Avro RJ85, Embrair RJ-135, RJ-145, RJ-175, Bombardier CRJ-100/200, CRJ-700, and Airbus A310, A320, A330. Today, I am a Million Miler traveler on United. The perks are nice!

 

Now that I have my Private Pilot's License, I'll be able to take to the skies and do my own flying and be part of a great group of people. The only thing you have to remember is this. What makes an airplane fly? Money!

 

 

 

Back to top of page

 

Useful Information

 

Local ADS-B Virtual Radar Sweep

radar

 

METARs for my local airports:

 

Cuyahoga County Airport (KCGF)

 

Cleveland Hopkins International (KCLE)

 

Lake County Executive Airport (KLNN)

 

Burke Lakefront Airport (KBKL)

 

Youngstown-Warren Regional Airport (KYNG)

 

Akron-Canton Regional Airport (KCAK)

 

|   Home   |    N8MDP   |    Aviation   |    Projects   |    Weather   |   Logbook    |    Contact   |


© 2022 , Jonathan Tucker N8MDP. All Rights Reserved.